Eatons Neck, New York
Current Conditions -  °F | °C
As of 2:53 AM on Saturday 01 Nov 2014 (Local Time) from KFRG Reporting Station
Overcast Overcast  
Wind Chill: 44°   Ceiling: 5000
Heat Index: 49°   Visibility: 10mi
Dew Point: 41°   Wind: 13mph
Humidity: 74%   Direction: 40°NE
Pressure: 29.82"   Gusts: 21mph
Location:  40.9096°N, 73.3231°W
Report Text: KFRG 010653Z AUTO 04011G18KT 10SM FEW030 OVC050 09/05 A2982 RMK AO2 SLP099 T00940050
Loading
Personal Weather Stations






























Interactive Weather Map
Tropical Storm Tracking
New forecast layout! Learn more

10-Day Weather Forecast

Advertisements
Track Severe Weather on mobile